Time;durP1;ratioP1;P1;durP2;ratioP2;P2;SDS_P1;SDS_P2;PMS_P1;PMS_P2;Temp;Humidity;BMP_temperature;BMP_pressure;BME280_temperature;BME280_humidity;BME280_pressure;Samples;Min_cycle;Max_cycle;Signal;HPM_P1;HPM_P2
2022/11/30 01:01:46;;;;;;;2.93;2.63;;;0.80;99.90;;;;;;5132719;27;20308;-93
2022/11/30 01:04:18;;;;;;;3.13;2.37;;;1.10;99.90;;;;;;5103189;28;20210;-92
2022/11/30 01:06:51;;;;;;;3.57;2.20;;;1.10;99.90;;;;;;5107791;28;20205;-93
2022/11/30 01:09:23;;;;;;;3.00;2.10;;;1.20;99.90;;;;;;5093969;28;20230;-93
2022/11/30 01:11:55;;;;;;;3.20;1.93;;;1.10;99.90;;;;;;5103480;28;20202;-91
2022/11/30 01:14:26;;;;;;;1.90;1.67;;;1.20;99.90;;;;;;5108138;28;20239;-92
2022/11/30 01:17:00;;;;;;;3.10;2.17;;;1.20;99.90;;;;;;5118517;27;20197;-93
2022/11/30 01:19:36;;;;;;;4.53;2.20;;;1.20;99.90;;;;;;5120499;27;20693;-91
2022/11/30 01:22:08;;;;;;;2.43;2.00;;;1.20;99.90;;;;;;5115615;27;20630;-90
2022/11/30 01:24:39;;;;;;;2.53;1.93;;;1.30;99.90;;;;;;5129252;27;20258;-91
2022/11/30 01:27:14;;;;;;;3.13;2.03;;;1.30;99.90;;;;;;5114866;27;20209;-92
2022/11/30 01:29:48;;;;;;;1.90;1.63;;;1.30;99.90;;;;;;5103212;28;20222;-93
2022/11/30 01:32:22;;;;;;;2.07;1.80;;;1.30;99.90;;;;;;5109340;28;20266;-92
2022/11/30 01:34:54;;;;;;;2.30;1.83;;;1.20;99.90;;;;;;5111274;28;20205;-93
2022/11/30 01:37:26;;;;;;;2.83;2.00;;;1.30;99.90;;;;;;5102587;28;20214;-95
2022/11/30 01:39:59;;;;;;;3.70;1.83;;;1.30;99.90;;;;;;5094984;28;20222;-93
2022/11/30 01:42:31;;;;;;;2.30;1.80;;;1.30;99.90;;;;;;5094399;28;20564;-93
2022/11/30 01:45:05;;;;;;;2.60;1.73;;;1.40;99.90;;;;;;5105897;28;20285;-92
2022/11/30 01:47:41;;;;;;;2.63;1.90;;;1.40;99.90;;;;;;5100932;28;20199;-93
2022/11/30 01:50:17;;;;;;;2.53;1.70;;;1.30;99.90;;;;;;5095888;28;20230;-92
2022/11/30 01:52:51;;;;;;;2.60;1.80;;;1.40;99.90;;;;;;5105640;28;20671;-93
2022/11/30 01:55:26;;;;;;;2.40;1.87;;;1.40;99.90;;;;;;5108869;28;20715;-96
2022/11/30 01:58:02;;;;;;;3.47;1.70;;;1.40;99.90;;;;;;5103815;28;20206;-96
2022/11/30 02:00:34;;;;;;;2.33;1.50;;;1.40;99.90;;;;;;5095000;28;20264;-96
2022/11/30 02:03:12;;;;;;;3.70;1.90;;;1.30;99.90;;;;;;5096161;28;20218;-96
2022/11/30 02:05:46;;;;;;;4.33;1.70;;;1.40;99.90;;;;;;5093661;28;20214;-96
2022/11/30 02:08:21;;;;;;;2.27;1.70;;;1.40;99.90;;;;;;5101644;28;20735;-96
2022/11/30 02:10:59;;;;;;;3.80;1.70;;;1.40;99.90;;;;;;5098050;28;20231;-95
2022/11/30 02:13:59;;;;;;;2.67;1.60;;;1.30;99.90;;;;;;5106140;28;20199;-96
2022/11/30 02:16:42;;;;;;;1.80;1.50;;;1.30;99.90;;;;;;5101034;28;20211;-96
2022/11/30 02:19:47;;;;;;;1.60;1.50;;;1.20;99.90;;;;;;5093454;28;20227;-94
2022/11/30 02:22:33;;;;;;;1.83;1.67;;;1.30;99.90;;;;;;5086358;28;20211;-96
2022/11/30 02:25:15;;;;;;;3.37;1.60;;;1.30;99.90;;;;;;5091429;28;20204;-94
2022/11/30 02:28:10;;;;;;;3.80;1.70;;;1.30;99.90;;;;;;5084247;28;20208;-96
2022/11/30 02:30:49;;;;;;;2.80;1.63;;;1.30;99.90;;;;;;5101800;28;20276;-94
2022/11/30 02:33:29;;;;;;;2.20;1.63;;;1.30;99.90;;;;;;5108593;28;20207;-95
2022/11/30 02:36:17;;;;;;;1.67;1.40;;;1.30;99.90;;;;;;5108577;28;20203;-96
2022/11/30 02:38:49;;;;;;;1.90;1.27;;;1.30;99.90;;;;;;5096103;28;20292;-96
2022/11/30 02:41:22;;;;;;;4.07;1.50;;;1.30;99.90;;;;;;5091750;28;20199;-95
2022/11/30 02:43:55;;;;;;;1.43;1.33;;;1.30;99.90;;;;;;5095167;28;20202;-95
2022/11/30 02:46:46;;;;;;;1.57;1.40;;;1.30;99.90;;;;;;5110836;28;20195;-96
2022/11/30 02:49:26;;;;;;;2.03;1.50;;;1.20;99.90;;;;;;5091018;28;20211;-95
2022/11/30 02:52:06;;;;;;;1.70;1.40;;;1.20;99.90;;;;;;5097824;28;20249;-95
2022/11/30 02:54:41;;;;;;;2.37;1.40;;;1.20;99.90;;;;;;5092288;28;20207;-94
2022/11/30 02:57:13;;;;;;;2.53;1.67;;;1.20;99.90;;;;;;5098587;28;20219;-93
2022/11/30 02:59:47;;;;;;;1.47;1.37;;;1.10;99.90;;;;;;5096921;28;20210;-95
2022/11/30 03:02:24;;;;;;;1.50;1.30;;;1.10;99.90;;;;;;5090878;28;20238;-96
2022/11/30 03:05:04;;;;;;;2.00;1.60;;;1.20;99.90;;;;;;5092036;28;20203;-94
2022/11/30 03:07:42;;;;;;;2.50;1.30;;;1.10;99.90;;;;;;5094979;28;20656;-95
2022/11/30 03:10:15;;;;;;;1.60;1.50;;;1.20;99.90;;;;;;5095752;28;20290;-96
2022/11/30 03:12:50;;;;;;;1.37;1.27;;;1.20;99.90;;;;;;5096609;28;20203;-95
2022/11/30 03:15:30;;;;;;;1.80;1.40;;;1.20;99.90;;;;;;5099539;28;20290;-95
2022/11/30 03:18:09;;;;;;;3.40;1.40;;;1.20;99.90;;;;;;5103283;28;20259;-93
2022/11/30 03:20:45;;;;;;;1.73;1.47;;;1.10;99.90;;;;;;5091515;28;20204;-95
2022/11/30 03:23:18;;;;;;;1.90;1.70;;;1.10;99.90;;;;;;5100218;28;20211;-95
2022/11/30 03:25:51;;;;;;;1.97;1.57;;;1.10;99.90;;;;;;5101304;28;20285;-96
2022/11/30 03:28:26;;;;;;;2.13;1.40;;;1.10;99.90;;;;;;5101632;28;20210;-95
2022/11/30 03:30:59;;;;;;;2.10;1.70;;;1.10;99.90;;;;;;5095815;28;20242;-95
2022/11/30 03:33:35;;;;;;;2.73;1.43;;;1.10;99.90;;;;;;5095501;28;20215;-96
2022/11/30 03:36:10;;;;;;;1.90;1.47;;;1.10;99.90;;;;;;5097934;28;20400;-93
2022/11/30 03:38:47;;;;;;;1.40;1.20;;;1.00;99.90;;;;;;5100971;28;20206;-94
2022/11/30 03:41:20;;;;;;;2.30;1.70;;;1.00;99.90;;;;;;5094788;28;20207;-95
2022/11/30 03:43:56;;;;;;;1.63;1.30;;;1.00;99.90;;;;;;5093062;28;20206;-95
2022/11/30 03:46:42;;;;;;;2.43;1.30;;;1.00;99.90;;;;;;5094393;28;20229;-94
2022/11/30 03:49:17;;;;;;;1.50;1.40;;;1.10;99.90;;;;;;5099068;28;20235;-93
2022/11/30 03:51:49;;;;;;;5.17;1.47;;;1.00;99.90;;;;;;5104269;28;20253;-94
2022/11/30 03:54:21;;;;;;;1.53;1.43;;;1.00;99.90;;;;;;5107359;28;20658;-94
2022/11/30 03:56:53;;;;;;;2.57;1.40;;;1.00;99.90;;;;;;5092671;28;20289;-94
2022/11/30 03:59:36;;;;;;;1.60;1.23;;;1.00;99.90;;;;;;5090260;28;20215;-95
2022/11/30 04:02:09;;;;;;;1.83;1.60;;;1.10;99.90;;;;;;5091067;28;20210;-93
2022/11/30 04:04:46;;;;;;;1.60;1.50;;;1.00;99.90;;;;;;5086760;28;20225;-94
2022/11/30 04:07:18;;;;;;;2.17;1.47;;;1.00;99.90;;;;;;5092857;28;20338;-93
2022/11/30 04:09:52;;;;;;;3.60;1.50;;;1.00;99.90;;;;;;5085487;28;20207;-93
2022/11/30 04:12:24;;;;;;;1.43;1.33;;;1.00;99.90;;;;;;5086524;28;20234;-93
2022/11/30 04:14:56;;;;;;;2.03;1.60;;;1.00;99.90;;;;;;5095954;28;20210;-93
2022/11/30 04:17:28;;;;;;;1.63;1.40;;;1.00;99.90;;;;;;5094090;28;20616;-93
2022/11/30 04:20:01;;;;;;;4.93;1.50;;;1.00;99.90;;;;;;5093244;28;20207;-95
2022/11/30 04:22:38;;;;;;;1.67;1.53;;;1.00;99.90;;;;;;5079452;28;20269;-93
2022/11/30 04:25:10;;;;;;;2.97;1.70;;;1.10;99.90;;;;;;5072838;28;20649;-96
2022/11/30 04:27:41;;;;;;;2.07;1.63;;;1.10;99.90;;;;;;5078598;28;20196;-93
2022/11/30 04:30:14;;;;;;;1.83;1.70;;;1.10;99.90;;;;;;5086203;28;20238;-94
2022/11/30 04:32:46;;;;;;;1.83;1.60;;;1.00;99.90;;;;;;5083693;28;20231;-94
2022/11/30 04:35:20;;;;;;;2.43;2.03;;;1.10;99.90;;;;;;5090128;28;20226;-93
2022/11/30 04:37:56;;;;;;;2.73;2.07;;;1.00;99.90;;;;;;5102297;28;20224;-93
2022/11/30 04:40:28;;;;;;;2.20;2.00;;;1.10;99.90;;;;;;5098068;28;20218;-93
2022/11/30 04:43:00;;;;;;;2.30;2.00;;;1.10;99.90;;;;;;5076877;28;20706;-94
2022/11/30 04:45:32;;;;;;;2.43;1.90;;;1.00;99.90;;;;;;5080254;28;20204;-94
2022/11/30 04:48:06;;;;;;;2.73;1.80;;;1.10;99.90;;;;;;5106808;28;20210;-94
2022/11/30 04:50:40;;;;;;;3.37;2.00;;;1.10;99.90;;;;;;5093808;28;20214;-93
2022/11/30 04:53:12;;;;;;;2.73;2.20;;;1.10;99.90;;;;;;5086854;28;20260;-95
2022/11/30 04:55:45;;;;;;;4.80;1.97;;;1.00;99.90;;;;;;5081744;28;20565;-94
2022/11/30 04:58:18;;;;;;;2.20;2.00;;;1.00;99.90;;;;;;5094660;28;20206;-95
2022/11/30 05:00:49;;;;;;;7.43;2.00;;;1.10;99.90;;;;;;5094331;28;20557;-94
2022/11/30 05:03:23;;;;;;;3.47;1.90;;;1.10;99.90;;;;;;5091280;28;20252;-92
2022/11/30 05:05:59;;;;;;;3.70;1.80;;;1.00;99.90;;;;;;5078068;28;20204;-92
2022/11/30 05:08:30;;;;;;;3.77;2.00;;;1.00;99.90;;;;;;5086799;28;20290;-93
2022/11/30 05:11:01;;;;;;;3.43;2.00;;;1.00;99.90;;;;;;5095133;28;20223;-92
2022/11/30 05:13:32;;;;;;;2.70;1.90;;;0.90;99.90;;;;;;5092487;28;20270;-92
2022/11/30 05:16:03;;;;;;;2.10;1.73;;;1.00;99.90;;;;;;5089135;28;20246;-92
2022/11/30 05:18:34;;;;;;;3.83;2.10;;;1.00;99.90;;;;;;5078057;28;20207;-92
2022/11/30 05:21:08;;;;;;;1.50;1.40;;;1.00;99.90;;;;;;5077470;28;20294;-92
2022/11/30 05:23:39;;;;;;;1.60;1.50;;;1.00;99.90;;;;;;5080096;28;20296;-92
2022/11/30 05:26:11;;;;;;;2.00;1.57;;;1.00;99.90;;;;;;5080719;28;20306;-92
2022/11/30 05:28:43;;;;;;;2.00;1.80;;;1.00;99.90;;;;;;5074117;28;20227;-92
2022/11/30 05:31:15;;;;;;;6.30;1.90;;;1.00;99.90;;;;;;5084167;28;20207;-91
2022/11/30 05:33:50;;;;;;;1.87;1.77;;;1.00;99.90;;;;;;5092544;28;20238;-92
2022/11/30 05:36:24;;;;;;;2.40;2.10;;;1.00;99.90;;;;;;5086907;28;20202;-92
2022/11/30 05:38:55;;;;;;;2.27;2.07;;;1.00;99.90;;;;;;5093345;28;20227;-91
2022/11/30 05:41:26;;;;;;;2.00;1.80;;;1.00;99.90;;;;;;5089642;28;20261;-91
2022/11/30 05:43:57;;;;;;;2.10;1.60;;;1.00;99.90;;;;;;5080009;28;20293;-91
2022/11/30 05:46:28;;;;;;;2.03;1.80;;;1.00;99.90;;;;;;5090084;28;20246;-91
2022/11/30 05:48:59;;;;;;;3.53;1.70;;;1.00;99.90;;;;;;5082148;28;20241;-93
2022/11/30 05:51:33;;;;;;;2.37;1.80;;;0.90;99.90;;;;;;5088224;28;20210;-91
2022/11/30 05:54:04;;;;;;;3.20;1.90;;;1.00;99.90;;;;;;5094117;28;20207;-92
2022/11/30 05:56:36;;;;;;;1.93;1.60;;;1.00;99.90;;;;;;5086082;28;20208;-92
2022/11/30 05:59:07;;;;;;;2.80;1.80;;;0.90;99.90;;;;;;5089353;28;20215;-93
2022/11/30 06:01:39;;;;;;;1.67;1.50;;;0.90;99.90;;;;;;5088459;28;20222;-92
2022/11/30 06:04:10;;;;;;;1.47;1.37;;;0.90;99.90;;;;;;5082002;28;20208;-91
2022/11/30 06:06:43;;;;;;;1.40;1.30;;;0.80;99.90;;;;;;5091399;28;20284;-91
2022/11/30 06:09:15;;;;;;;2.47;1.40;;;0.90;99.90;;;;;;5086085;28;20673;-91
2022/11/30 06:11:47;;;;;;;11.60;1.80;;;0.80;99.90;;;;;;5078473;28;20543;-90
2022/11/30 06:14:18;;;;;;;1.07;0.97;;;0.90;99.90;;;;;;5117075;28;20228;-91
2022/11/30 06:16:49;;;;;;;1.10;1.00;;;0.80;99.90;;;;;;5118792;28;20233;-90
2022/11/30 06:19:20;;;;;;;1.60;1.40;;;0.80;99.90;;;;;;5113647;28;20230;-91
2022/11/30 06:21:54;;;;;;;1.53;1.30;;;0.90;99.90;;;;;;5112890;28;20229;-91
2022/11/30 06:24:25;;;;;;;4.87;1.27;;;0.80;99.90;;;;;;5103461;28;20260;-90
2022/11/30 06:26:56;;;;;;;0.83;0.83;;;0.80;99.90;;;;;;5096344;28;20207;-90
2022/11/30 06:29:27;;;;;;;1.20;1.10;;;0.80;99.90;;;;;;5096449;28;20203;-90
2022/11/30 06:31:58;;;;;;;1.20;1.00;;;0.80;99.90;;;;;;5076246;28;20268;-91
2022/11/30 06:34:32;;;;;;;1.10;0.97;;;0.80;99.90;;;;;;5100189;28;20664;-90
2022/11/30 06:37:05;;;;;;;1.47;1.03;;;0.80;99.90;;;;;;5091640;28;20233;-92
2022/11/30 06:39:36;;;;;;;1.03;1.00;;;0.80;99.90;;;;;;5100647;28;20235;-91
2022/11/30 06:42:29;;;;;;;1.17;1.07;;;0.80;99.90;;;;;;5086418;28;22017;-91
2022/11/30 06:45:00;;;;;;;1.20;1.10;;;0.90;99.90;;;;;;5074899;28;20269;-91
2022/11/30 06:47:31;;;;;;;1.30;1.20;;;0.90;99.90;;;;;;5075052;28;20661;-90
2022/11/30 06:50:02;;;;;;;1.37;1.20;;;0.90;99.90;;;;;;5091848;28;20249;-90
2022/11/30 06:52:37;;;;;;;1.43;1.33;;;1.00;99.90;;;;;;5093538;28;20238;-91
2022/11/30 06:55:09;;;;;;;1.83;1.30;;;0.90;99.90;;;;;;5078195;28;20293;-91
2022/11/30 06:57:40;;;;;;;1.37;1.27;;;0.90;99.90;;;;;;5095177;28;20222;-91
2022/11/30 07:00:20;;;;;;;1.37;1.27;;;0.90;99.90;;;;;;5096918;28;20273;-92
2022/11/30 07:02:52;;;;;;;1.80;1.40;;;0.90;99.90;;;;;;5085287;28;20301;-92
2022/11/30 07:05:24;;;;;;;2.73;1.50;;;0.90;99.90;;;;;;5079912;28;20215;-91
2022/11/30 07:07:58;;;;;;;1.40;1.20;;;0.90;99.90;;;;;;5090510;28;20204;-91
2022/11/30 07:10:30;;;;;;;2.00;1.60;;;0.80;99.90;;;;;;5082970;28;20211;-92
2022/11/30 07:13:01;;;;;;;1.73;1.50;;;0.90;99.90;;;;;;5082137;28;20306;-90
2022/11/30 07:15:34;;;;;;;3.03;1.50;;;0.90;99.90;;;;;;5085860;28;20264;-92
2022/11/30 07:18:05;;;;;;;1.53;1.43;;;0.80;99.90;;;;;;5081283;28;20654;-90
2022/11/30 07:20:38;;;;;;;2.37;1.57;;;0.80;99.90;;;;;;5076711;28;20212;-91
2022/11/30 07:26:23;;;;;;;5.70;1.37;;;0.80;99.90;;;;;;5046415;28;20650;-87
2022/11/30 07:28:58;;;;;;;2.03;1.40;;;0.80;99.90;;;;;;5045376;28;20578;-91
2022/11/30 07:31:33;;;;;;;2.03;1.80;;;0.90;99.90;;;;;;5068270;28;20249;-90
2022/11/30 07:34:08;;;;;;;1.53;1.27;;;0.90;99.90;;;;;;5079864;28;20233;-90
2022/11/30 07:36:39;;;;;;;2.50;1.40;;;0.90;99.90;;;;;;5091929;28;20194;-89
2022/11/30 07:39:14;;;;;;;1.27;1.17;;;0.90;99.90;;;;;;5080759;28;20265;-91
2022/11/30 07:41:46;;;;;;;1.17;1.00;;;0.90;99.90;;;;;;5085550;28;20230;-90
2022/11/30 07:44:17;;;;;;;1.20;1.10;;;0.90;99.90;;;;;;5076381;28;20404;-90
2022/11/30 07:46:49;;;;;;;1.23;1.07;;;0.90;99.90;;;;;;5085902;28;20214;-91
2022/11/30 07:49:21;;;;;;;2.17;1.30;;;1.00;99.90;;;;;;5083822;28;20223;-91
2022/11/30 07:51:53;;;;;;;1.20;1.00;;;1.00;99.90;;;;;;5085860;28;20298;-91
2022/11/30 07:54:27;;;;;;;1.63;1.23;;;0.90;99.90;;;;;;5085445;28;20303;-92
2022/11/30 07:56:59;;;;;;;2.00;1.20;;;0.90;99.90;;;;;;5090874;28;20603;-92
2022/11/30 07:59:31;;;;;;;1.83;1.30;;;0.80;99.90;;;;;;5080688;28;20257;-92
2022/11/30 08:02:03;;;;;;;1.60;1.30;;;0.80;99.90;;;;;;5087345;28;20234;-93
2022/11/30 08:04:37;;;;;;;2.07;1.40;;;0.90;99.90;;;;;;5086572;28;20210;-92
2022/11/30 08:07:09;;;;;;;1.13;1.03;;;0.90;99.90;;;;;;5080166;28;20255;-92
2022/11/30 08:09:43;;;;;;;1.50;1.30;;;0.90;99.90;;;;;;5079585;28;20281;-92
2022/11/30 08:12:15;;;;;;;1.30;1.20;;;0.90;99.90;;;;;;5083595;28;20232;-91
2022/11/30 08:14:46;;;;;;;1.33;1.20;;;0.80;99.90;;;;;;5074417;28;20259;-92
2022/11/30 08:17:38;;;;;;;1.30;1.20;;;0.80;99.90;;;;;;5092896;28;20213;-92
2022/11/30 08:20:10;;;;;;;1.50;1.37;;;0.80;99.90;;;;;;5091571;28;20206;-92
2022/11/30 08:22:42;;;;;;;2.60;1.20;;;0.90;99.90;;;;;;5094804;28;20258;-92
2022/11/30 08:25:15;;;;;;;1.30;1.20;;;0.90;99.90;;;;;;5097042;28;20298;-92
2022/11/30 08:27:46;;;;;;;1.40;1.27;;;0.90;99.90;;;;;;5095256;28;20206;-92
2022/11/30 08:30:18;;;;;;;1.40;1.23;;;0.90;99.90;;;;;;5097631;28;20210;-92
2022/11/30 08:32:49;;;;;;;1.53;1.10;;;0.90;99.90;;;;;;5095631;28;20204;-91
2022/11/30 08:35:20;;;;;;;1.20;1.10;;;0.90;99.90;;;;;;5095369;28;20221;-93
2022/11/30 08:38:01;;;;;;;1.50;1.30;;;0.90;99.90;;;;;;5076265;27;10000711;-91
2022/11/30 08:40:34;;;;;;;1.00;1.00;;;0.90;99.90;;;;;;5088833;28;20267;-92
2022/11/30 08:43:06;;;;;;;1.00;1.00;;;0.90;99.90;;;;;;5087979;28;20223;-92
2022/11/30 08:45:38;;;;;;;1.07;1.00;;;0.90;99.90;;;;;;5095272;28;20221;-92
2022/11/30 08:48:09;;;;;;;18.93;3.40;;;0.90;99.90;;;;;;5084137;28;20202;-91
